This is the latest recevied weather packets stored in our database for station/object SP3ZBZ-13. If no packets are shown the sender has not sent any weather packets the latest 10 day(s).
| Time | Temp. | Humidity | Pressure | Rain* | Wind** | Luminosity | Snow |
|---|---|---|---|---|---|---|---|
| 1787824605 | 22.22° C | 47% | 1018.6 hPa | - | - | 583 W/m² | - |
| 1787823704 | 21.67° C | 49% | 1018.7 hPa | - | - | 571 W/m² | - |
| 1787822802 | 21.67° C | 51% | 1018.8 hPa | - | - | 85 W/m² | - |
| 1787821902 | 21.67° C | 54% | 1018.8 hPa | - | - | 330 W/m² | - |
| 1787821000 | 21.11° C | 56% | 1018.9 hPa | - | - | 505 W/m² | - |
| 1787820099 | 20° C | 67% | 1018.9 hPa | - | - | 477 W/m² | - |
| 1787819197 | 18.89° C | 71% | 1019 hPa | - | - | 443 W/m² | - |
| 1787818296 | 17.78° C | 76% | 1018.9 hPa | - | - | 409 W/m² | - |
| 1787817395 | 17.78° C | 77% | 1019 hPa | - | - | 388 W/m² | - |
| 1787816494 | 16.11° C | 81% | 1019 hPa | - | - | 343 W/m² | - |
| 1787815593 | 16.11° C | 82% | 1019 hPa | - | - | 307 W/m² | - |
| 1787814691 | 15.56° C | 82% | 1019 hPa | - | - | 268 W/m² | - |
| 1787813791 | 14.44° C | 85% | 1019 hPa | - | - | 232 W/m² | - |
| 1787812889 | 13.89° C | 86% | 1018.9 hPa | - | - | 195 W/m² | - |
| 1787811989 | 13.33° C | 88% | 1018.8 hPa | - | - | 123 W/m² | - |
| 1787811088 | 12.78° C | 89% | 1018.9 hPa | - | - | 71 W/m² | - |
| 1787810186 | 12.22° C | 90% | 1019 hPa | - | - | 62 W/m² | - |
| 1787809285 | 11.67° C | 90% | 1019 hPa | - | - | 56 W/m² | - |
| 1787808383 | 11.11° C | 92% | 1019 hPa | - | - | 48 W/m² | - |
| 1787807482 | 10.56° C | 95% | 1019.2 hPa | - | - | 41 W/m² | - |
| 1787806582 | 10° C | 96% | 1019.2 hPa | - | - | 34 W/m² | - |
| 1787805681 | 10° C | 96% | 1019.1 hPa | - | - | 26 W/m² | - |
| 1787804780 | 10° C | 96% | 1019.1 hPa | - | - | 17 W/m² | - |
| 1787803879 | 9.44° C | 96% | 1019 hPa | - | - | 9 W/m² | - |
| 1787802978 | 10° C | 96% | 1019.1 hPa | - | - | 3 W/m² | - |
* Rain since midnight (hover to see other rain measurements)
** Current wind speed in m/s (hover to see current wind gust speed)